KGTR

Golden Triangle Regional Airport

Airport
ICAO code
KGTR
IATA Code
GTR
Summary
ICAO Region
NAM
ICAO Territory
Location

Starkville, Mississippi

Serving
Golden Triangle
Elevation
264 ft
Coordinates
33° 27' 1" N , 88° 35' 28" W
KCC
Metar
KGTR 250356Z AUTO 00000KT 10SM CLR 24/23 A2986 RMK AO2 SLP115 T02440228

Golden Triangle Regional Airport is a public use airport in Lowndes County, Mississippi, United States. The airport is located midway between the cities of Columbus, Starkville, and West Point, Mississippi and serves the area known as the Golden Triangle.

 

Airport map

Aerial View

SKYbrary Partners:

Safety knowledge contributed by: